createdAt,value
2022-08-10T00:00:56.053Z,2.30
2022-08-10T00:03:24.454Z,2.10
2022-08-10T00:05:56.425Z,2.03
2022-08-10T00:08:26.031Z,2.10
2022-08-10T00:10:54.339Z,2.40
2022-08-10T00:13:22.709Z,2.03
2022-08-10T00:15:54.166Z,2.20
2022-08-10T00:18:34.347Z,2.40
2022-08-10T00:21:05.125Z,2.30
2022-08-10T00:23:33.431Z,2.22
2022-08-10T00:26:01.810Z,2.70
2022-08-10T00:28:30.306Z,2.30
2022-08-10T00:30:58.592Z,2.13
2022-08-10T00:33:26.874Z,2.15
2022-08-10T00:35:55.435Z,2.60
2022-08-10T00:38:25.140Z,2.40
2022-08-10T00:40:53.452Z,2.45
2022-08-10T00:43:23.686Z,2.38
2022-08-10T00:45:58.958Z,2.70
2022-08-10T00:48:29.075Z,2.22
2022-08-10T00:50:57.378Z,2.45
2022-08-10T00:53:27.102Z,2.53
2022-08-10T00:57:10.033Z,2.38
2022-08-10T00:58:43.975Z,2.80
2022-08-10T01:02:07.740Z,2.53
2022-08-10T01:04:40.159Z,2.70
2022-08-10T01:06:55.368Z,2.70
2022-08-10T01:09:31.096Z,3.33
2022-08-10T01:12:38.821Z,2.60
2022-08-10T01:14:52.840Z,2.90
2022-08-10T01:17:23.747Z,2.70
2022-08-10T01:20:30.301Z,2.65
2022-08-10T01:23:20.117Z,2.70
2022-08-10T01:26:12.195Z,2.95
2022-08-10T01:28:51.401Z,2.75
2022-08-10T01:31:24.874Z,2.83
2022-08-10T01:33:58.941Z,2.80
2022-08-10T01:36:32.466Z,3.15
2022-08-10T01:39:03.865Z,2.90
2022-08-10T01:41:46.272Z,2.97
2022-08-10T01:44:16.686Z,2.95
2022-08-10T01:46:53.161Z,2.60
2022-08-10T01:49:25.489Z,3.10
2022-08-10T01:51:56.245Z,2.95
2022-08-10T01:54:29.260Z,2.88
2022-08-10T01:56:58.718Z,3.08
2022-08-10T01:59:30.138Z,3.38
2022-08-10T02:02:01.750Z,3.33
2022-08-10T02:04:31.129Z,3.03
2022-08-10T02:07:01.375Z,3.10
2022-08-10T02:09:31.021Z,3.10
2022-08-10T02:12:07.221Z,3.47
2022-08-10T02:14:38.131Z,3.23
2022-08-10T02:17:09.405Z,3.20
2022-08-10T02:19:58.624Z,3.27
2022-08-10T02:22:38.259Z,3.40
2022-08-10T02:25:08.750Z,3.60
2022-08-10T02:27:37.552Z,3.20
2022-08-10T02:30:07.081Z,3.60
2022-08-10T02:32:38.487Z,3.80
2022-08-10T02:35:21.787Z,4.10
2022-08-10T02:37:51.503Z,3.50
2022-08-10T02:45:12.733Z,3.50
2022-08-10T02:45:18.928Z,3.60
2022-08-10T02:46:02.937Z,3.40
2022-08-10T02:48:36.578Z,4.00
2022-08-10T02:51:08.677Z,3.70
2022-08-10T02:53:54.900Z,4.03
2022-08-10T02:56:26.720Z,3.73
2022-08-10T02:58:57.684Z,4.00
2022-08-10T03:01:28.885Z,4.00
2022-08-10T03:04:01.496Z,3.97
2022-08-10T03:06:34.490Z,4.20
2022-08-10T03:09:03.601Z,3.80
2022-08-10T03:12:37.893Z,4.20
2022-08-10T03:14:22.026Z,4.43
2022-08-10T03:16:51.578Z,4.83
2022-08-10T03:20:34.179Z,4.07
2022-08-10T03:22:11.132Z,4.47
2022-08-10T03:24:40.122Z,4.57
2022-08-10T03:27:08.990Z,4.50
2022-08-10T03:30:31.881Z,4.53
2022-08-10T03:32:26.124Z,4.47
2022-08-10T03:34:55.872Z,5.10
2022-08-10T03:37:24.161Z,4.27
2022-08-10T03:39:52.734Z,4.60
2022-08-10T03:42:22.229Z,4.87
2022-08-10T03:44:51.528Z,5.00
2022-08-10T03:47:20.974Z,4.73
2022-08-10T03:49:50.215Z,5.30
2022-08-10T03:52:20.316Z,5.00
2022-08-10T03:54:51.563Z,5.07
2022-08-10T03:57:20.023Z,5.43
2022-08-10T03:59:48.459Z,4.97
2022-08-10T04:02:44.653Z,4.83
2022-08-10T04:05:05.530Z,5.23
2022-08-10T04:07:36.155Z,5.40
2022-08-10T04:10:04.434Z,5.23
2022-08-10T04:12:33.481Z,5.33
2022-08-10T04:15:01.726Z,5.83
2022-08-10T04:18:03.107Z,5.67
2022-08-10T04:20:20.313Z,5.70
2022-08-10T04:22:51.656Z,5.90
2022-08-10T04:25:20.144Z,5.40
2022-08-10T04:27:48.676Z,5.53
2022-08-10T04:30:17.164Z,6.13
2022-08-10T04:32:47.379Z,6.30
2022-08-10T04:35:16.352Z,5.77
2022-08-10T04:37:47.142Z,6.20
2022-08-10T04:40:25.377Z,5.90
2022-08-10T04:43:05.847Z,6.47
2022-08-10T04:45:50.239Z,6.30
2022-08-10T04:48:43.376Z,6.63
2022-08-10T04:51:10.850Z,6.00
2022-08-10T04:54:04.382Z,6.47
2022-08-10T04:56:33.322Z,6.53
2022-08-10T04:59:01.572Z,6.73
2022-08-10T05:02:21.314Z,6.47
2022-08-10T05:04:34.907Z,6.97
2022-08-10T05:07:07.034Z,6.53
2022-08-10T05:10:02.648Z,6.93
2022-08-10T05:12:25.311Z,6.70
2022-08-10T05:14:54.546Z,6.70
2022-08-10T05:17:23.669Z,6.87
2022-08-10T05:20:05.158Z,6.90
2022-08-10T05:22:34.723Z,6.80
2022-08-10T05:25:03.104Z,7.37
2022-08-10T05:27:33.538Z,6.60
2022-08-10T05:30:03.451Z,6.30
2022-08-10T05:32:32.464Z,6.37
2022-08-10T05:35:20.762Z,6.37
2022-08-10T05:38:09.348Z,6.40
2022-08-10T05:40:38.573Z,6.13
2022-08-10T05:43:08.731Z,6.00
2022-08-10T05:46:18.718Z,5.95
2022-08-10T05:48:55.715Z,7.10
2022-08-10T05:51:14.014Z,6.27
2022-08-10T05:54:01.207Z,6.03
2022-08-10T05:56:53.530Z,6.45
2022-08-10T06:00:35.541Z,5.40
2022-08-10T06:02:33.082Z,5.90
2022-08-10T06:05:00.435Z,5.68
2022-08-10T06:07:30.127Z,5.45
2022-08-10T06:10:00.191Z,5.38
2022-08-10T06:12:54.264Z,5.40
2022-08-10T06:15:21.319Z,5.82
2022-08-10T06:18:01.625Z,6.10
2022-08-10T06:20:35.816Z,5.35
2022-08-10T06:23:05.697Z,5.22
2022-08-10T06:28:23.899Z,4.85
2022-08-10T06:30:55.653Z,4.88
2022-08-10T06:33:25.219Z,5.32
2022-08-10T06:35:55.134Z,4.57
2022-08-10T06:38:24.891Z,4.50
2022-08-10T06:40:55.370Z,4.20
2022-08-10T06:43:24.985Z,4.53
2022-08-10T06:46:08.799Z,4.75
2022-08-10T06:48:40.403Z,4.93
2022-08-10T06:51:09.485Z,4.95
2022-08-10T06:53:53.305Z,4.47
2022-08-10T06:56:37.469Z,4.53
2022-08-10T06:59:08.783Z,4.03
2022-08-10T07:01:52.050Z,4.20
2022-08-10T07:04:33.317Z,4.10
2022-08-10T07:07:04.047Z,3.97
2022-08-10T07:09:33.361Z,3.65
2022-08-10T07:12:08.612Z,4.00
2022-08-10T07:14:39.407Z,3.53
2022-08-10T07:17:15.255Z,3.72
2022-08-10T07:19:50.263Z,3.88
2022-08-10T07:23:08.669Z,3.47
2022-08-10T07:25:10.548Z,3.10
2022-08-10T07:27:59.880Z,3.92
2022-08-10T07:30:29.197Z,3.13
2022-08-10T07:32:59.114Z,3.17
2022-08-10T07:35:31.888Z,3.10
2022-08-10T07:38:03.970Z,2.80
2022-08-10T07:40:34.283Z,3.03
2022-08-10T07:43:03.760Z,3.03
2022-08-10T07:45:33.382Z,2.92
2022-08-10T07:48:07.730Z,3.03
2022-08-10T07:50:38.168Z,2.35
2022-08-10T07:53:09.443Z,2.38
2022-08-10T07:56:03.663Z,2.50
2022-08-10T07:58:30.529Z,2.60
2022-08-10T08:01:00.392Z,2.33
2022-08-10T08:03:31.276Z,2.40
2022-08-10T08:06:05.589Z,2.10
2022-08-10T08:08:40.801Z,2.25
2022-08-10T08:11:09.899Z,2.20
2022-08-10T08:13:55.959Z,2.15
2022-08-10T08:16:24.624Z,1.85
2022-08-10T08:19:27.816Z,2.13
2022-08-10T08:24:07.380Z,2.05
2022-08-10T08:24:34.770Z,2.28
2022-08-10T08:27:03.780Z,2.30
2022-08-10T08:29:33.201Z,2.20
2022-08-10T08:32:03.319Z,2.10
2022-08-10T08:34:34.054Z,1.90
2022-08-10T08:37:02.948Z,2.00
2022-08-10T08:39:33.327Z,1.92
2022-08-10T08:42:09.841Z,1.90
2022-08-10T08:44:45.197Z,2.17
2022-08-10T08:48:03.890Z,2.22
2022-08-10T08:50:13.040Z,2.00
2022-08-10T08:52:51.146Z,2.42
2022-08-10T08:56:03.782Z,2.03
2022-08-10T08:58:24.885Z,2.25
2022-08-10T09:00:57.396Z,2.22
2022-08-10T09:03:44.258Z,2.30
2022-08-10T09:06:22.949Z,2.10
2022-08-10T09:09:01.748Z,1.90
2022-08-10T09:11:34.584Z,2.00
2022-08-10T09:14:11.519Z,2.30
2022-08-10T09:16:44.869Z,2.10
2022-08-10T09:19:31.837Z,1.95
2022-08-10T09:22:17.073Z,1.77
2022-08-10T09:24:47.958Z,1.95
2022-08-10T09:27:20.070Z,2.00
2022-08-10T09:29:55.821Z,2.10
2022-08-10T09:36:14.870Z,2.17
2022-08-10T09:36:25.142Z,1.92
2022-08-10T09:38:13.978Z,1.80
2022-08-10T09:41:00.305Z,1.75
2022-08-10T09:43:36.525Z,1.52
2022-08-10T09:46:15.971Z,1.65
2022-08-10T09:48:48.054Z,2.00
2022-08-10T09:54:29.206Z,1.73
2022-08-10T09:57:31.851Z,1.67
2022-08-10T10:00:00.397Z,1.75
2022-08-10T10:02:40.849Z,2.08
2022-08-10T10:05:14.500Z,1.65
2022-08-10T10:07:48.086Z,1.88
2022-08-10T10:10:20.481Z,1.50
2022-08-10T10:12:53.431Z,1.70
2022-08-10T10:15:26.278Z,1.88
2022-08-10T10:18:24.701Z,1.52
2022-08-10T10:21:03.581Z,1.83
2022-08-10T10:23:38.781Z,2.00
2022-08-10T10:26:18.478Z,1.55
2022-08-10T10:29:30.808Z,1.75
2022-08-10T10:31:43.822Z,2.03
2022-08-10T10:34:15.813Z,1.67
2022-08-10T10:36:45.766Z,2.20
2022-08-10T10:39:15.592Z,1.95
2022-08-10T10:41:56.047Z,1.85
2022-08-10T10:44:44.043Z,1.90
2022-08-10T10:47:22.059Z,1.70
2022-08-10T10:49:55.838Z,1.70
2022-08-10T10:52:31.447Z,1.50
2022-08-10T10:55:05.151Z,1.67
2022-08-10T10:57:59.824Z,1.50
2022-08-10T11:00:32.478Z,1.58
2022-08-10T11:03:08.237Z,1.55
2022-08-10T11:05:44.849Z,1.30
2022-08-10T11:08:15.437Z,1.70
2022-08-10T11:10:47.417Z,1.88
2022-08-10T11:14:26.463Z,1.85
2022-08-10T11:16:23.853Z,1.80
2022-08-10T11:19:00.847Z,1.55
2022-08-10T11:21:38.767Z,1.50
2022-08-10T11:24:47.077Z,1.58
2022-08-10T11:27:02.845Z,2.03
2022-08-10T11:29:36.560Z,1.55
2022-08-10T11:32:06.701Z,1.95
2022-08-10T11:34:46.956Z,1.92
2022-08-10T11:37:20.541Z,1.83
2022-08-10T11:39:53.312Z,1.90
2022-08-10T11:42:35.894Z,1.58
2022-08-10T11:45:08.769Z,1.58
2022-08-10T11:47:42.331Z,1.60
2022-08-10T11:50:15.501Z,1.50
2022-08-10T11:56:26.739Z,2.10
2022-08-10T11:59:16.951Z,1.50
2022-08-10T12:01:48.887Z,1.40
2022-08-10T12:04:18.256Z,1.40
2022-08-10T12:06:56.304Z,2.28
2022-08-10T12:10:03.935Z,1.60
2022-08-10T12:12:15.032Z,1.50
2022-08-10T12:14:47.428Z,1.50
2022-08-10T12:17:18.982Z,1.27
2022-08-10T12:20:01.638Z,1.50
2022-08-10T12:22:33.243Z,1.20
2022-08-10T12:25:05.386Z,1.45
2022-08-10T12:27:37.188Z,1.40
2022-08-10T12:30:06.935Z,1.20
2022-08-10T12:32:43.576Z,1.85
2022-08-10T12:35:22.731Z,1.85
2022-08-10T12:38:02.654Z,1.70
2022-08-10T12:40:36.479Z,1.58
2022-08-10T12:44:05.390Z,1.38
2022-08-10T12:46:06.802Z,1.35
2022-08-10T12:48:43.769Z,1.60
2022-08-10T12:51:16.405Z,1.70
2022-08-10T12:53:49.989Z,1.58
2022-08-10T12:56:23.917Z,1.70
2022-08-10T12:58:59.371Z,1.70
2022-08-10T13:02:06.304Z,1.42
2022-08-10T13:04:29.079Z,1.50
2022-08-10T13:06:58.691Z,1.35
2022-08-10T13:09:27.675Z,2.00
2022-08-10T13:12:38.186Z,1.60
2022-08-10T13:14:49.494Z,1.60
2022-08-10T13:17:23.256Z,1.67
2022-08-10T13:19:58.602Z,1.77
2022-08-10T13:22:32.525Z,1.60
2022-08-10T13:25:03.253Z,1.70
2022-08-10T13:28:00.713Z,1.77
2022-08-10T13:30:37.722Z,1.83
2022-08-10T13:33:07.941Z,1.83
2022-08-10T13:35:38.578Z,1.70
2022-08-10T13:38:09.499Z,1.80
2022-08-10T13:40:38.566Z,1.70
2022-08-10T13:43:08.900Z,2.20
2022-08-10T13:45:44.991Z,1.67
2022-08-10T13:48:24.918Z,1.73
2022-08-10T13:50:58.850Z,1.88
2022-08-10T13:53:31.746Z,2.10
2022-08-10T13:56:01.453Z,1.83
2022-08-10T13:58:32.557Z,1.95
2022-08-10T14:01:02.147Z,1.80
2022-08-10T14:03:37.453Z,1.67
2022-08-10T14:06:08.587Z,1.73
2022-08-10T14:08:38.028Z,1.92
2022-08-10T14:11:11.547Z,1.88
2022-08-10T14:13:44.575Z,2.10
2022-08-10T14:16:13.711Z,1.83
2022-08-10T14:18:45.046Z,1.90
2022-08-10T14:21:16.221Z,2.00
2022-08-10T14:23:53.205Z,1.85
2022-08-10T14:26:24.020Z,1.83
2022-08-10T14:28:55.018Z,1.80
2022-08-10T14:31:25.124Z,1.80
2022-08-10T14:33:56.542Z,1.90
2022-08-10T14:36:31.888Z,1.70
2022-08-10T14:39:00.911Z,1.67
2022-08-10T14:42:01.491Z,1.70
2022-08-10T14:44:20.004Z,1.80
2022-08-10T14:46:51.530Z,1.75
2022-08-10T14:49:25.405Z,1.77
2022-08-10T14:52:01.292Z,2.20
2022-08-10T14:54:32.425Z,1.80
2022-08-10T14:57:11.534Z,1.75
2022-08-10T15:00:20.978Z,1.80
2022-08-10T15:02:40.612Z,1.85
2022-08-10T15:05:19.759Z,1.70
2022-08-10T15:07:58.749Z,1.60
2022-08-10T15:10:28.732Z,1.83
2022-08-10T15:12:58.599Z,1.50
2022-08-10T15:15:29.133Z,1.98
2022-08-10T15:17:59.057Z,1.40
2022-08-10T15:20:28.618Z,1.67
2022-08-10T15:23:07.047Z,1.80
2022-08-10T15:25:39.002Z,1.73
2022-08-10T15:28:10.394Z,1.85
2022-08-10T15:30:40.824Z,1.83
2022-08-10T15:34:02.833Z,1.58
2022-08-10T15:36:34.666Z,2.00
2022-08-10T15:39:12.737Z,1.70
2022-08-10T15:41:58.557Z,2.10
2022-08-10T15:44:39.158Z,1.90
2022-08-10T15:47:10.418Z,1.80
2022-08-10T15:49:45.034Z,2.28
2022-08-10T15:52:39.643Z,2.50
2022-08-10T15:55:42.306Z,1.50
2022-08-10T15:58:03.336Z,1.50
2022-08-10T16:00:32.958Z,2.05
2022-08-10T16:03:13.175Z,2.00
2022-08-10T16:06:02.636Z,1.58
2022-08-10T16:08:37.728Z,1.60
2022-08-10T16:11:37.453Z,1.92
2022-08-10T16:14:13.851Z,1.80
2022-08-10T16:16:43.167Z,2.08
2022-08-10T16:19:22.186Z,1.90
2022-08-10T16:21:56.614Z,2.00
2022-08-10T16:24:25.972Z,2.10
2022-08-10T16:26:56.288Z,1.63
2022-08-10T16:29:26.143Z,2.15
2022-08-10T16:31:55.765Z,1.90
2022-08-10T16:34:24.900Z,1.85
2022-08-10T16:36:54.695Z,2.08
2022-08-10T16:40:00.256Z,2.00
2022-08-10T16:42:23.369Z,1.80
2022-08-10T16:44:55.207Z,2.05
2022-08-10T16:47:27.498Z,2.20
2022-08-10T16:49:57.031Z,2.10
2022-08-10T16:52:26.350Z,2.40
2022-08-10T16:54:58.987Z,2.00
2022-08-10T16:57:30.070Z,1.85
2022-08-10T16:59:59.290Z,1.98
2022-08-10T17:02:28.192Z,1.80
2022-08-10T17:04:57.917Z,2.00
2022-08-10T17:07:30.621Z,1.90
2022-08-10T17:10:06.410Z,2.08
2022-08-10T17:12:38.641Z,2.17
2022-08-10T17:15:11.082Z,2.10
2022-08-10T17:17:41.583Z,2.05
2022-08-10T17:20:31.346Z,2.10
2022-08-10T17:22:59.744Z,2.08
2022-08-10T17:25:49.001Z,2.00
2022-08-10T17:28:34.892Z,2.53
2022-08-10T17:31:18.945Z,2.00
2022-08-10T17:33:57.458Z,1.85
2022-08-10T17:36:27.545Z,1.80
2022-08-10T17:38:56.887Z,1.95
2022-08-10T17:41:26.104Z,2.10
2022-08-10T17:44:03.145Z,1.95
2022-08-10T17:46:33.613Z,2.00
2022-08-10T17:49:03.308Z,2.03
2022-08-10T17:51:31.655Z,2.65
2022-08-10T17:54:02.179Z,1.98
2022-08-10T17:56:33.098Z,2.15
2022-08-10T17:59:10.021Z,2.10
2022-08-10T18:02:01.801Z,2.13
2022-08-10T18:04:40.867Z,2.08
2022-08-10T18:07:10.526Z,1.95
2022-08-10T18:09:41.211Z,2.00
2022-08-10T18:12:17.854Z,2.40
2022-08-10T18:14:50.049Z,1.95
2022-08-10T18:17:20.185Z,2.05
2022-08-10T18:19:49.095Z,1.85
2022-08-10T18:22:18.030Z,2.30
2022-08-10T18:24:47.168Z,2.00
2022-08-10T18:27:16.154Z,2.20
2022-08-10T18:29:45.917Z,2.00
2022-08-10T18:32:16.435Z,1.80
2022-08-10T18:34:45.514Z,1.90
2022-08-10T18:37:20.113Z,2.85
2022-08-10T18:39:49.265Z,2.50
2022-08-10T18:42:18.925Z,1.95
2022-08-10T18:44:50.252Z,2.55
2022-08-10T18:47:22.688Z,2.35
2022-08-10T18:49:52.931Z,1.92
2022-08-10T18:52:22.204Z,1.90
2022-08-10T18:54:51.702Z,2.08
2022-08-10T18:57:27.712Z,2.22
2022-08-10T19:00:10.273Z,2.42
2022-08-10T19:03:05.655Z,2.50
2022-08-10T19:05:58.025Z,2.30
2022-08-10T19:08:49.532Z,2.40
2022-08-10T19:11:22.246Z,2.30
2022-08-10T19:13:52.491Z,2.60
2022-08-10T19:16:28.748Z,2.78
2022-08-10T19:19:07.313Z,2.58
2022-08-10T19:21:55.622Z,2.60
2022-08-10T19:24:26.961Z,2.10
2022-08-10T19:26:58.922Z,2.80
2022-08-10T19:30:08.677Z,2.80
2022-08-10T19:32:26.061Z,2.47
2022-08-10T19:35:04.660Z,2.60
2022-08-10T19:37:36.765Z,2.10
2022-08-10T19:40:12.851Z,2.75
2022-08-10T19:42:42.875Z,2.45
2022-08-10T19:46:01.356Z,2.40
2022-08-10T19:48:12.126Z,2.15
2022-08-10T19:50:42.665Z,2.15
2022-08-10T19:53:16.117Z,2.20
2022-08-10T19:55:52.196Z,2.20
2022-08-10T19:58:22.036Z,2.30
2022-08-10T20:00:54.829Z,2.25
2022-08-10T20:03:25.117Z,2.85
2022-08-10T20:06:19.243Z,2.70
2022-08-10T20:08:48.753Z,3.00
2022-08-10T20:11:44.176Z,2.78
2022-08-10T20:14:21.916Z,2.20
2022-08-10T20:16:51.191Z,2.22
2022-08-10T20:19:26.209Z,2.67
2022-08-10T20:22:14.504Z,2.70
2022-08-10T20:24:48.680Z,2.33
2022-08-10T20:27:44.249Z,2.53
2022-08-10T20:30:12.328Z,3.25
2022-08-10T20:32:45.203Z,2.50
2022-08-10T20:35:17.046Z,3.10
2022-08-10T20:38:04.073Z,1.75
2022-08-10T20:40:36.889Z,2.30
2022-08-10T20:43:11.583Z,2.70
2022-08-10T20:46:05.354Z,2.35
2022-08-10T20:48:36.435Z,2.47
2022-08-10T20:51:07.140Z,2.22
2022-08-10T20:53:36.379Z,2.60
2022-08-10T20:56:10.170Z,2.05
2022-08-10T20:58:44.824Z,2.25
2022-08-10T21:01:17.046Z,2.05
2022-08-10T21:04:18.716Z,2.35
2022-08-10T21:06:56.142Z,2.55
2022-08-10T21:09:28.912Z,2.42
2022-08-10T21:12:09.019Z,1.95
2022-08-10T21:14:45.140Z,2.17
2022-08-10T21:17:31.733Z,2.22
2022-08-10T21:20:11.422Z,2.80
2022-08-10T21:22:41.500Z,2.17
2022-08-10T21:25:15.399Z,2.10
2022-08-10T21:28:10.080Z,2.20
2022-08-10T21:30:46.444Z,2.50
2022-08-10T21:33:26.217Z,2.10
2022-08-10T21:35:57.056Z,1.85
2022-08-10T21:38:26.937Z,2.20
2022-08-10T21:41:17.520Z,2.05
2022-08-10T21:44:09.193Z,2.10
2022-08-10T21:47:02.929Z,2.22
2022-08-10T21:49:57.505Z,2.55
2022-08-10T21:52:53.823Z,2.00
2022-08-10T21:55:57.023Z,2.28
2022-08-10T21:58:49.552Z,2.25
2022-08-10T22:01:40.367Z,2.00
2022-08-10T22:04:27.807Z,2.20
2022-08-10T22:07:15.355Z,2.15
2022-08-10T22:10:04.112Z,2.35
2022-08-10T22:12:56.042Z,2.10
2022-08-10T22:16:05.354Z,2.03
2022-08-10T22:19:01.364Z,2.20
2022-08-10T22:21:55.745Z,2.25
2022-08-10T22:24:56.490Z,2.55
2022-08-10T22:27:48.467Z,2.20
2022-08-10T22:30:35.836Z,2.50
2022-08-10T22:33:32.110Z,2.70
2022-08-10T22:36:25.570Z,2.30
2022-08-10T22:40:11.430Z,2.30
2022-08-10T22:42:32.056Z,2.67
2022-08-10T22:45:38.487Z,2.30
2022-08-10T22:48:25.322Z,2.17
2022-08-10T22:51:00.114Z,2.20
2022-08-10T22:53:50.587Z,2.22
2022-08-10T22:56:41.317Z,2.50
2022-08-10T22:59:11.037Z,2.25
2022-08-10T23:02:07.332Z,2.95
2022-08-10T23:04:34.770Z,2.30
2022-08-10T23:07:08.147Z,2.35
2022-08-10T23:09:37.021Z,2.70
2022-08-10T23:12:14.666Z,2.15
2022-08-10T23:14:45.227Z,2.08
2022-08-10T23:18:00.442Z,2.40
2022-08-10T23:20:31.413Z,2.22
2022-08-10T23:23:08.980Z,2.08
2022-08-10T23:25:56.815Z,2.40
2022-08-10T23:28:38.847Z,2.58
2022-08-10T23:31:50.275Z,2.40
2022-08-10T23:34:06.833Z,2.30
2022-08-10T23:36:36.129Z,2.40
2022-08-10T23:39:26.676Z,2.40
2022-08-10T23:41:56.015Z,2.25
2022-08-10T23:44:26.410Z,2.45
2022-08-10T23:46:55.127Z,2.58
2022-08-10T23:49:24.316Z,2.17
2022-08-10T23:51:55.136Z,2.50
2022-08-10T23:54:25.445Z,2.35
2022-08-10T23:56:55.951Z,2.63
2022-08-10T23:59:26.929Z,2.20
